createdAt,value
2023-12-11T00:00:15.277Z,84.03
2023-12-11T00:01:23.835Z,84.22
2023-12-11T00:02:29.469Z,84.13
2023-12-11T00:03:36.278Z,83.61
2023-12-11T00:04:41.695Z,84.13
2023-12-11T00:05:49.008Z,83.65
2023-12-11T00:06:54.415Z,83.80
2023-12-11T00:08:01.140Z,83.68
2023-12-11T00:09:06.609Z,83.30
2023-12-11T00:10:13.952Z,83.63
2023-12-11T00:11:19.398Z,83.40
2023-12-11T00:12:26.069Z,83.60
2023-12-11T00:13:31.485Z,83.30
2023-12-11T00:14:38.232Z,83.41
2023-12-11T00:15:43.771Z,83.03
2023-12-11T00:16:52.170Z,83.42
2023-12-11T00:17:57.640Z,83.60
2023-12-11T00:19:04.750Z,83.35
2023-12-11T00:20:11.554Z,83.26
2023-12-11T00:21:18.415Z,83.61
2023-12-11T00:22:23.949Z,83.67
2023-12-11T00:23:31.483Z,83.21
2023-12-11T00:24:37.922Z,83.02
2023-12-11T00:25:50.238Z,83.39
2023-12-11T00:26:55.743Z,83.21
2023-12-11T00:28:02.708Z,83.03
2023-12-11T00:29:08.503Z,83.18
2023-12-11T00:30:16.792Z,83.02
2023-12-11T00:31:22.282Z,83.30
2023-12-11T00:32:30.719Z,83.00
2023-12-11T00:33:36.125Z,82.96
2023-12-11T00:34:43.101Z,83.09
2023-12-11T00:35:48.865Z,83.53
2023-12-11T00:36:55.693Z,83.23
2023-12-11T00:38:01.077Z,83.15
2023-12-11T00:39:07.889Z,83.10
2023-12-11T00:40:13.747Z,83.45
2023-12-11T00:41:21.118Z,83.22
2023-12-11T00:42:26.486Z,83.51
2023-12-11T00:43:44.472Z,83.27
2023-12-11T00:44:53.368Z,83.50
2023-12-11T00:46:00.230Z,83.39
2023-12-11T00:47:06.799Z,83.43
2023-12-11T00:48:15.949Z,83.61
2023-12-11T00:49:21.562Z,83.30
2023-12-11T00:50:28.331Z,83.29
2023-12-11T00:51:33.761Z,83.46
2023-12-11T00:52:41.583Z,83.22
2023-12-11T00:53:47.184Z,83.38
2023-12-11T00:54:53.992Z,83.64
2023-12-11T00:55:59.417Z,83.48
2023-12-11T00:57:06.191Z,83.35
2023-12-11T00:58:11.775Z,83.35
2023-12-11T00:59:18.539Z,83.45
2023-12-11T01:00:23.972Z,83.15
2023-12-11T01:01:30.879Z,82.80
2023-12-11T01:02:36.354Z,83.31
2023-12-11T01:03:45.027Z,83.06
2023-12-11T01:04:50.699Z,83.43
2023-12-11T01:05:57.709Z,83.30
2023-12-11T01:07:03.055Z,82.97
2023-12-11T01:08:10.517Z,83.26
2023-12-11T01:09:15.908Z,83.02
2023-12-11T01:10:22.761Z,82.77
2023-12-11T01:11:28.147Z,82.56
2023-12-11T01:12:34.914Z,82.57
2023-12-11T01:13:40.571Z,82.46
2023-12-11T01:14:47.238Z,82.43
2023-12-11T01:15:52.906Z,82.33
2023-12-11T01:16:59.718Z,82.27
2023-12-11T01:18:26.490Z,82.46
2023-12-11T01:19:35.135Z,82.12
2023-12-11T01:20:41.337Z,82.08
2023-12-11T01:21:48.965Z,82.17
2023-12-11T01:22:54.300Z,82.09
2023-12-11T01:24:00.987Z,82.10
2023-12-11T01:25:06.698Z,82.10
2023-12-11T01:26:13.532Z,82.00
2023-12-11T01:27:18.987Z,81.99
2023-12-11T01:28:25.715Z,81.88
2023-12-11T01:29:31.107Z,81.65
2023-12-11T01:30:37.888Z,81.88
2023-12-11T01:31:43.313Z,81.82
2023-12-11T01:32:50.117Z,81.90
2023-12-11T01:33:55.522Z,81.74
2023-12-11T01:35:04.113Z,81.82
2023-12-11T01:36:11.049Z,81.59
2023-12-11T01:37:17.738Z,81.44
2023-12-11T01:38:23.133Z,81.47
2023-12-11T01:39:30.006Z,81.45
2023-12-11T01:40:35.446Z,81.41
2023-12-11T01:41:44.588Z,81.45
2023-12-11T01:42:51.008Z,81.29
2023-12-11T01:43:57.976Z,81.48
2023-12-11T01:45:03.458Z,81.22
2023-12-11T01:46:11.756Z,81.16
2023-12-11T01:47:17.379Z,81.15
2023-12-11T01:48:22.917Z,81.10
2023-12-11T01:49:29.911Z,81.07
2023-12-11T01:50:37.153Z,81.04
2023-12-11T01:51:44.376Z,80.95
2023-12-11T01:52:49.862Z,80.82
2023-12-11T01:53:57.361Z,80.76
2023-12-11T01:55:02.878Z,80.73
2023-12-11T01:56:10.982Z,80.67
2023-12-11T01:57:17.249Z,80.89
2023-12-11T01:58:24.989Z,80.89
2023-12-11T01:59:30.606Z,80.85
2023-12-11T02:00:37.735Z,80.71
2023-12-11T02:01:43.364Z,80.68
2023-12-11T02:02:50.681Z,80.71
2023-12-11T02:03:56.343Z,80.54
2023-12-11T02:05:03.343Z,80.51
2023-12-11T02:06:10.778Z,80.42
2023-12-11T02:07:17.594Z,80.31
2023-12-11T02:08:23.008Z,80.30
2023-12-11T02:09:30.761Z,79.92
2023-12-11T02:10:36.287Z,80.03
2023-12-11T02:11:45.086Z,79.97
2023-12-11T02:12:52.083Z,79.89
2023-12-11T02:13:58.907Z,79.98
2023-12-11T02:15:04.372Z,79.53
2023-12-11T02:16:11.975Z,79.57
2023-12-11T02:17:17.352Z,79.38
2023-12-11T02:18:24.506Z,79.66
2023-12-11T02:19:30.012Z,79.60
2023-12-11T02:20:35.514Z,79.56
2023-12-11T02:21:43.916Z,79.08
2023-12-11T02:22:49.348Z,79.27
2023-12-11T02:24:00.056Z,79.11
2023-12-11T02:25:10.156Z,79.24
2023-12-11T02:26:19.362Z,79.34
2023-12-11T02:27:24.840Z,78.81
2023-12-11T02:28:31.577Z,78.95
2023-12-11T02:29:37.094Z,78.94
2023-12-11T02:30:54.576Z,79.01
2023-12-11T02:32:00.069Z,78.53
2023-12-11T02:33:06.887Z,79.01
2023-12-11T02:34:12.468Z,78.57
2023-12-11T02:35:19.435Z,78.58
2023-12-11T02:36:24.715Z,78.71
2023-12-11T02:37:31.649Z,78.47
2023-12-11T02:38:37.250Z,78.64
2023-12-11T02:39:44.085Z,78.48
2023-12-11T02:40:49.483Z,78.39
2023-12-11T02:41:57.925Z,77.76
2023-12-11T02:43:03.292Z,78.02
2023-12-11T02:44:10.211Z,78.13
2023-12-11T02:45:15.547Z,77.67
2023-12-11T02:46:22.256Z,77.64
2023-12-11T02:47:27.633Z,77.84
2023-12-11T02:48:35.124Z,77.69
2023-12-11T02:49:40.467Z,77.46
2023-12-11T02:50:47.425Z,77.35
2023-12-11T02:51:52.838Z,77.49
2023-12-11T02:53:00.712Z,77.22
2023-12-11T02:54:06.200Z,77.38
2023-12-11T02:55:13.223Z,77.12
2023-12-11T02:56:18.634Z,77.34
2023-12-11T02:57:27.165Z,77.17
2023-12-11T02:58:32.605Z,76.70
2023-12-11T02:59:39.781Z,77.11
2023-12-11T03:00:45.352Z,76.45
2023-12-11T03:01:52.269Z,76.25
2023-12-11T03:02:57.947Z,76.64
2023-12-11T03:04:04.878Z,76.15
2023-12-11T03:05:10.901Z,76.23
2023-12-11T03:06:23.244Z,75.87
2023-12-11T03:07:30.256Z,75.97
2023-12-11T03:08:37.084Z,76.30
2023-12-11T03:09:42.439Z,75.82
2023-12-11T03:10:50.383Z,75.83
2023-12-11T03:11:57.511Z,75.84
2023-12-11T03:13:06.105Z,75.97
2023-12-11T03:14:11.546Z,75.84
2023-12-11T03:15:18.478Z,76.01
2023-12-11T03:16:23.811Z,75.49
2023-12-11T03:17:31.102Z,76.07
2023-12-11T03:18:36.755Z,75.82
2023-12-11T03:19:43.984Z,75.13
2023-12-11T03:20:49.438Z,75.45
2023-12-11T03:21:58.262Z,75.29
2023-12-11T03:23:03.685Z,75.42
2023-12-11T03:24:10.604Z,74.99
2023-12-11T03:25:16.158Z,75.54
2023-12-11T03:26:22.957Z,74.93
2023-12-11T03:27:28.753Z,75.24
2023-12-11T03:28:42.968Z,74.07
2023-12-11T03:29:48.341Z,75.17
2023-12-11T03:30:55.203Z,74.89
2023-12-11T03:32:00.721Z,74.36
2023-12-11T03:33:07.491Z,74.99
2023-12-11T03:34:12.861Z,74.68
2023-12-11T03:35:18.374Z,74.48
2023-12-11T03:36:25.209Z,74.60
2023-12-11T03:37:30.741Z,74.00
2023-12-11T03:38:37.530Z,74.06
2023-12-11T03:39:43.980Z,74.30
2023-12-11T03:40:50.861Z,74.54
2023-12-11T03:41:56.250Z,73.99
2023-12-11T03:43:03.212Z,73.66
2023-12-11T03:44:10.474Z,74.28
2023-12-11T03:45:17.172Z,74.19
2023-12-11T03:46:22.533Z,74.34
2023-12-11T03:47:29.582Z,73.74
2023-12-11T03:48:35.196Z,74.05
2023-12-11T03:49:42.273Z,73.47
2023-12-11T03:50:47.663Z,73.69
2023-12-11T03:51:54.393Z,73.51
2023-12-11T03:52:59.960Z,73.69
2023-12-11T03:54:06.830Z,73.75
2023-12-11T03:55:12.433Z,73.36
2023-12-11T03:56:18.025Z,73.87
2023-12-11T03:57:24.964Z,73.03
2023-12-11T03:58:30.503Z,73.13
2023-12-11T03:59:37.744Z,72.76
2023-12-11T04:00:44.667Z,72.43
2023-12-11T04:01:50.340Z,73.08
2023-12-11T04:02:57.256Z,72.71
2023-12-11T04:04:03.616Z,72.75
2023-12-11T04:05:11.147Z,72.67
2023-12-11T04:06:16.618Z,73.05
2023-12-11T04:07:23.543Z,73.29
2023-12-11T04:08:29.094Z,73.04
2023-12-11T04:09:35.938Z,73.33
2023-12-11T04:10:41.696Z,73.28
2023-12-11T04:11:49.670Z,73.31
2023-12-11T04:12:55.092Z,72.64
2023-12-11T04:14:01.934Z,72.94
2023-12-11T04:15:10.282Z,72.84
2023-12-11T04:16:17.166Z,72.56
2023-12-11T04:17:23.066Z,72.91
2023-12-11T04:18:29.920Z,72.52
2023-12-11T04:19:35.472Z,72.27
2023-12-11T04:20:42.307Z,71.79
2023-12-11T04:21:47.865Z,71.84
2023-12-11T04:22:54.749Z,71.91
2023-12-11T04:24:00.459Z,71.99
2023-12-11T04:25:07.591Z,71.26
2023-12-11T04:26:13.197Z,71.79
2023-12-11T04:27:20.026Z,71.63
2023-12-11T04:28:25.442Z,71.89
2023-12-11T04:29:32.239Z,71.55
2023-12-11T04:30:39.612Z,71.59
2023-12-11T04:31:46.521Z,71.38
2023-12-11T04:32:52.005Z,71.68
2023-12-11T04:33:58.984Z,71.27
2023-12-11T04:35:04.544Z,71.46
2023-12-11T04:36:12.824Z,70.73
2023-12-11T04:37:18.477Z,70.95
2023-12-11T04:38:25.304Z,71.43
2023-12-11T04:39:30.748Z,71.03
2023-12-11T04:40:37.653Z,71.30
2023-12-11T04:41:43.060Z,70.78
2023-12-11T04:42:49.907Z,70.97
2023-12-11T04:43:55.457Z,70.52
2023-12-11T04:45:02.296Z,70.21
2023-12-11T04:46:09.831Z,69.95
2023-12-11T04:47:16.657Z,70.10
2023-12-11T04:48:22.217Z,69.90
2023-12-11T04:49:29.098Z,67.95
2023-12-11T04:50:34.585Z,69.13
2023-12-11T04:51:41.622Z,69.81
2023-12-11T04:52:47.109Z,69.39
2023-12-11T04:53:54.362Z,69.62
2023-12-11T04:55:00.399Z,69.72
2023-12-11T04:56:11.812Z,68.55
2023-12-11T04:57:17.243Z,69.31
2023-12-11T04:58:24.057Z,69.04
2023-12-11T04:59:29.518Z,69.47
2023-12-11T05:00:36.494Z,69.73
2023-12-11T05:01:43.786Z,69.22
2023-12-11T05:02:54.336Z,69.04
2023-12-11T05:03:59.840Z,69.06
2023-12-11T05:05:07.137Z,68.94
2023-12-11T05:06:12.843Z,68.83
2023-12-11T05:07:19.656Z,68.87
2023-12-11T05:08:26.710Z,69.11
2023-12-11T05:09:35.058Z,69.17
2023-12-11T05:10:40.667Z,68.61
2023-12-11T05:11:47.823Z,68.15
2023-12-11T05:12:53.337Z,68.24
2023-12-11T05:14:00.484Z,68.16
2023-12-11T05:15:06.066Z,68.00
2023-12-11T05:16:13.694Z,67.91
2023-12-11T05:17:21.137Z,67.41
2023-12-11T05:18:27.878Z,68.14
2023-12-11T05:19:33.572Z,67.73
2023-12-11T05:20:40.448Z,67.79
2023-12-11T05:21:47.314Z,67.56
2023-12-11T05:22:54.144Z,67.81
2023-12-11T05:23:59.673Z,67.40
2023-12-11T05:25:06.563Z,67.42
2023-12-11T05:26:11.989Z,67.50
2023-12-11T05:27:18.915Z,67.61
2023-12-11T05:28:24.310Z,67.55
2023-12-11T05:29:31.890Z,67.46
2023-12-11T05:30:37.342Z,67.74
2023-12-11T05:31:44.147Z,67.61
2023-12-11T05:32:51.631Z,67.02
2023-12-11T05:33:58.585Z,67.79
2023-12-11T05:35:04.363Z,67.71
2023-12-11T05:36:12.870Z,67.41
2023-12-11T05:37:18.471Z,67.12
2023-12-11T05:38:24.142Z,67.47
2023-12-11T05:39:30.947Z,67.18
2023-12-11T05:40:36.508Z,67.16
2023-12-11T05:41:43.270Z,66.85
2023-12-11T05:42:48.692Z,67.04
2023-12-11T05:43:55.625Z,67.07
2023-12-11T05:45:01.038Z,66.98
2023-12-11T05:46:08.507Z,67.13
2023-12-11T05:47:14.027Z,67.47
2023-12-11T05:48:22.813Z,66.51
2023-12-11T05:49:28.554Z,67.41
2023-12-11T05:50:36.310Z,66.90
2023-12-11T05:51:42.729Z,66.77
2023-12-11T05:52:48.302Z,66.78
2023-12-11T05:53:55.101Z,66.84
2023-12-11T05:55:00.675Z,66.90
2023-12-11T05:56:07.672Z,66.52
2023-12-11T05:57:13.161Z,66.72
2023-12-11T05:58:19.990Z,66.60
2023-12-11T05:59:25.491Z,66.41
2023-12-11T06:00:32.341Z,66.25
2023-12-11T06:01:37.870Z,65.90
2023-12-11T06:02:44.741Z,66.09
2023-12-11T06:03:52.040Z,66.26
2023-12-11T06:04:59.066Z,66.43
2023-12-11T06:06:04.629Z,66.60
2023-12-11T06:07:11.513Z,66.46
2023-12-11T06:08:17.040Z,66.29
2023-12-11T06:09:23.845Z,66.10
2023-12-11T06:10:29.455Z,66.18
2023-12-11T06:11:36.354Z,66.37
2023-12-11T06:12:42.006Z,66.16
2023-12-11T06:13:48.866Z,66.09
2023-12-11T06:14:54.440Z,66.01
2023-12-11T06:16:01.395Z,65.85
2023-12-11T06:17:07.135Z,65.69
2023-12-11T06:18:13.967Z,65.42
2023-12-11T06:19:21.287Z,64.72
2023-12-11T06:20:28.222Z,65.26
2023-12-11T06:21:33.772Z,65.15
2023-12-11T06:22:40.683Z,65.21
2023-12-11T06:23:46.158Z,65.29
2023-12-11T06:24:52.997Z,65.24
2023-12-11T06:25:58.500Z,65.02
2023-12-11T06:27:05.448Z,65.14
2023-12-11T06:28:11.027Z,65.12
2023-12-11T06:29:17.898Z,64.62
2023-12-11T06:30:23.586Z,64.58
2023-12-11T06:31:30.810Z,64.76
2023-12-11T06:32:36.384Z,64.57
2023-12-11T06:33:43.370Z,63.98
2023-12-11T06:34:50.967Z,64.11
2023-12-11T06:35:57.937Z,63.17
2023-12-11T06:37:03.588Z,64.06
2023-12-11T06:38:10.989Z,64.20
2023-12-11T06:39:16.577Z,63.63
2023-12-11T06:40:23.453Z,63.49
2023-12-11T06:41:28.868Z,62.89
2023-12-11T06:42:42.202Z,63.14
2023-12-11T06:43:49.733Z,63.16
2023-12-11T06:44:57.174Z,62.85
2023-12-11T06:46:02.697Z,62.63
2023-12-11T06:47:09.876Z,61.51
2023-12-11T06:48:15.450Z,62.55
2023-12-11T06:49:22.401Z,62.51
2023-12-11T06:50:29.918Z,62.17
2023-12-11T06:51:37.686Z,62.56
2023-12-11T06:52:43.207Z,62.60
2023-12-11T06:53:50.074Z,62.68
2023-12-11T06:54:55.820Z,62.81
2023-12-11T06:56:02.663Z,62.81
2023-12-11T06:57:08.411Z,62.67
2023-12-11T06:58:15.316Z,62.83
2023-12-11T06:59:20.864Z,62.91
2023-12-11T07:00:28.078Z,62.80
2023-12-11T07:01:33.988Z,63.08
2023-12-11T07:02:40.997Z,63.01
2023-12-11T07:03:47.771Z,63.00
2023-12-11T07:04:54.889Z,63.13
2023-12-11T07:06:03.067Z,62.99
2023-12-11T07:07:10.129Z,63.10
2023-12-11T07:08:15.634Z,63.46
2023-12-11T07:09:22.435Z,63.24
2023-12-11T07:10:28.012Z,63.12
2023-12-11T07:11:34.834Z,63.06
2023-12-11T07:12:43.147Z,63.25
2023-12-11T07:13:50.294Z,62.76
2023-12-11T07:14:55.745Z,62.59
2023-12-11T07:16:02.753Z,62.59
2023-12-11T07:17:08.319Z,62.68
2023-12-11T07:18:16.548Z,62.72
2023-12-11T07:19:22.679Z,62.85
2023-12-11T07:20:30.044Z,62.90
2023-12-11T07:21:37.427Z,62.68
2023-12-11T07:22:44.403Z,62.64
2023-12-11T07:23:50.809Z,62.79
2023-12-11T07:24:57.642Z,62.71
2023-12-11T07:26:03.135Z,62.56
2023-12-11T07:27:10.299Z,62.32
2023-12-11T07:28:16.395Z,62.41
2023-12-11T07:29:23.246Z,62.51
2023-12-11T07:30:29.646Z,62.06
2023-12-11T07:31:36.476Z,62.36
2023-12-11T07:32:42.295Z,62.40
2023-12-11T07:33:49.283Z,62.36
2023-12-11T07:34:54.864Z,62.45
2023-12-11T07:36:01.873Z,62.22
2023-12-11T07:37:09.222Z,61.28
2023-12-11T07:38:16.216Z,61.63
2023-12-11T07:39:21.719Z,60.54
2023-12-11T07:40:28.659Z,61.48
2023-12-11T07:41:34.161Z,61.49
2023-12-11T07:42:41.322Z,61.71
2023-12-11T07:43:46.824Z,61.34
2023-12-11T07:44:53.601Z,61.31
2023-12-11T07:45:59.171Z,61.23
2023-12-11T07:47:04.768Z,61.05
2023-12-11T07:48:11.752Z,61.14
2023-12-11T07:49:17.480Z,60.89
2023-12-11T07:50:24.535Z,60.47
2023-12-11T07:51:30.752Z,60.46
2023-12-11T07:52:39.409Z,60.36
2023-12-11T07:53:44.824Z,60.63
2023-12-11T07:54:51.733Z,60.99
2023-12-11T07:55:57.234Z,60.71
2023-12-11T07:57:04.068Z,60.89
2023-12-11T07:58:09.605Z,60.75
2023-12-11T07:59:16.400Z,60.87
2023-12-11T08:00:22.309Z,60.71
2023-12-11T08:01:32.189Z,60.13
2023-12-11T08:02:38.850Z,59.55
2023-12-11T08:03:46.194Z,60.08
2023-12-11T08:04:52.118Z,59.71
2023-12-11T08:05:59.066Z,58.74
2023-12-11T08:07:04.516Z,59.71
2023-12-11T08:08:13.040Z,58.44
2023-12-11T08:09:18.569Z,59.50
2023-12-11T08:10:25.619Z,59.42
2023-12-11T08:11:31.227Z,59.53
2023-12-11T08:12:38.215Z,60.07
2023-12-11T08:13:43.849Z,59.55
2023-12-11T08:14:50.697Z,59.41
2023-12-11T08:15:56.948Z,59.46
2023-12-11T08:17:03.809Z,59.62
2023-12-11T08:18:09.367Z,59.70
2023-12-11T08:19:16.342Z,59.65
2023-12-11T08:20:23.411Z,59.06
2023-12-11T08:21:30.405Z,59.64
2023-12-11T08:22:35.858Z,59.04
2023-12-11T08:23:46.753Z,58.05
2023-12-11T08:24:52.216Z,58.81
2023-12-11T08:25:59.650Z,58.88
2023-12-11T08:27:09.718Z,59.23
2023-12-11T08:28:16.678Z,59.02
2023-12-11T08:29:24.085Z,59.41
2023-12-11T08:30:31.066Z,58.99
2023-12-11T08:31:36.629Z,58.68
2023-12-11T08:32:43.940Z,57.70
2023-12-11T08:33:49.624Z,58.37
2023-12-11T08:34:56.508Z,58.57
2023-12-11T08:36:02.068Z,58.62
2023-12-11T08:37:11.185Z,58.37
2023-12-11T08:38:18.465Z,58.57
2023-12-11T08:39:27.111Z,58.43
2023-12-11T08:40:34.084Z,58.33
2023-12-11T08:41:43.945Z,58.96
2023-12-11T08:42:49.620Z,58.55
2023-12-11T08:43:56.632Z,58.67
2023-12-11T08:45:02.167Z,58.44
2023-12-11T08:46:09.344Z,58.32
2023-12-11T08:47:14.875Z,58.23
2023-12-11T08:48:21.841Z,58.39
2023-12-11T08:49:27.789Z,58.65
2023-12-11T08:50:34.718Z,58.69
2023-12-11T08:51:40.648Z,58.55
2023-12-11T08:52:47.703Z,58.89
2023-12-11T08:53:53.959Z,58.86
2023-12-11T08:55:02.820Z,58.52
2023-12-11T08:56:08.752Z,59.03
2023-12-11T08:57:16.029Z,58.94
2023-12-11T08:58:21.857Z,58.67
2023-12-11T08:59:28.627Z,58.58
2023-12-11T09:00:34.077Z,58.43
2023-12-11T09:01:44.101Z,58.12
2023-12-11T09:02:49.502Z,58.40
2023-12-11T09:03:56.320Z,58.63
2023-12-11T09:05:01.833Z,58.55
2023-12-11T09:06:09.392Z,58.42
2023-12-11T09:07:14.959Z,58.84
2023-12-11T09:08:21.883Z,58.75
2023-12-11T09:09:27.445Z,59.10
2023-12-11T09:10:35.943Z,57.61
2023-12-11T09:11:41.394Z,57.83
2023-12-11T09:12:48.313Z,58.41
2023-12-11T09:13:53.821Z,58.68
2023-12-11T09:15:00.724Z,58.55
2023-12-11T09:16:06.539Z,58.70
2023-12-11T09:17:13.520Z,58.44
2023-12-11T09:18:19.161Z,58.35
2023-12-11T09:19:35.843Z,58.42
2023-12-11T09:20:47.577Z,58.54
2023-12-11T09:21:54.449Z,58.69
2023-12-11T09:22:59.932Z,58.58
2023-12-11T09:24:08.574Z,58.68
2023-12-11T09:25:14.259Z,58.58
2023-12-11T09:26:23.208Z,57.76
2023-12-11T09:27:29.047Z,58.32
2023-12-11T09:28:41.630Z,58.85
2023-12-11T09:29:55.153Z,58.87
2023-12-11T09:31:02.097Z,58.47
2023-12-11T09:32:08.332Z,58.65
2023-12-11T09:33:15.342Z,58.50
2023-12-11T09:34:20.953Z,58.91
2023-12-11T09:35:28.154Z,58.85
2023-12-11T09:36:33.890Z,58.76
2023-12-11T09:37:40.724Z,58.73
2023-12-11T09:38:47.784Z,58.57
2023-12-11T09:39:55.243Z,58.58
2023-12-11T09:41:01.823Z,58.80
2023-12-11T09:42:11.088Z,58.59
2023-12-11T09:43:16.888Z,58.84
2023-12-11T09:44:24.980Z,58.62
2023-12-11T09:45:30.562Z,59.21
2023-12-11T09:46:46.356Z,58.10
2023-12-11T09:48:04.973Z,58.82
2023-12-11T09:49:18.373Z,59.25
2023-12-11T09:50:24.353Z,59.11
2023-12-11T09:51:31.257Z,59.59
2023-12-11T09:52:37.121Z,59.63
2023-12-11T09:53:43.992Z,59.67
2023-12-11T09:54:54.559Z,59.83
2023-12-11T09:56:01.734Z,60.05
2023-12-11T09:57:10.802Z,60.10
2023-12-11T09:58:18.001Z,60.24
2023-12-11T09:59:23.958Z,60.53
2023-12-11T10:00:30.794Z,60.56
2023-12-11T10:01:36.777Z,60.88
2023-12-11T10:02:44.275Z,60.72
2023-12-11T10:03:51.252Z,61.04
2023-12-11T10:05:06.146Z,61.03
2023-12-11T10:06:15.438Z,61.30
2023-12-11T10:07:21.050Z,61.41
2023-12-11T10:08:27.812Z,61.37
2023-12-11T10:09:35.902Z,61.54
2023-12-11T10:10:43.473Z,61.66
2023-12-11T10:12:01.929Z,62.79
2023-12-11T10:13:10.676Z,62.45
2023-12-11T10:14:16.160Z,62.24
2023-12-11T10:15:26.079Z,63.21
2023-12-11T10:16:33.496Z,62.67
2023-12-11T10:17:39.010Z,62.77
2023-12-11T10:18:53.475Z,63.48
2023-12-11T10:19:59.232Z,63.16
2023-12-11T10:21:06.699Z,63.40
2023-12-11T10:22:20.193Z,63.97
2023-12-11T10:23:27.098Z,63.68
2023-12-11T10:24:33.698Z,63.54
2023-12-11T10:25:40.508Z,63.63
2023-12-11T10:26:49.663Z,64.14
2023-12-11T10:27:56.460Z,64.02
2023-12-11T10:29:20.643Z,64.02
2023-12-11T10:30:27.582Z,64.07
2023-12-11T10:31:38.687Z,64.08
2023-12-11T10:32:45.875Z,63.88
2023-12-11T10:33:52.350Z,64.37
2023-12-11T10:34:59.390Z,64.41
2023-12-11T10:36:19.254Z,64.00
2023-12-11T10:37:33.841Z,63.79
2023-12-11T10:38:39.447Z,64.19
2023-12-11T10:39:57.396Z,64.24
2023-12-11T10:41:02.754Z,64.52
2023-12-11T10:42:22.782Z,64.74
2023-12-11T10:43:30.279Z,64.73
2023-12-11T10:44:47.149Z,65.40
2023-12-11T10:46:01.163Z,65.26
2023-12-11T10:47:08.426Z,65.62
2023-12-11T10:48:14.053Z,65.69
2023-12-11T10:49:22.219Z,66.01
2023-12-11T10:50:28.061Z,66.04
2023-12-11T10:51:37.521Z,66.43
2023-12-11T10:52:44.992Z,67.03
2023-12-11T10:53:51.920Z,66.49
2023-12-11T10:54:57.325Z,66.70
2023-12-11T10:56:04.271Z,66.49
2023-12-11T10:57:15.663Z,66.87
2023-12-11T10:58:22.982Z,66.79
2023-12-11T10:59:28.369Z,66.94
2023-12-11T11:00:37.268Z,67.01
2023-12-11T11:01:43.929Z,66.74
2023-12-11T11:02:53.349Z,66.99
2023-12-11T11:03:58.928Z,67.22
2023-12-11T11:05:06.878Z,67.72
2023-12-11T11:06:12.641Z,67.67
2023-12-11T11:07:27.207Z,67.90
2023-12-11T11:08:41.167Z,68.03
2023-12-11T11:09:54.162Z,67.70
2023-12-11T11:11:05.814Z,67.96
2023-12-11T11:12:17.495Z,68.20
2023-12-11T11:13:47.111Z,68.54
2023-12-11T11:14:52.727Z,67.77
2023-12-11T11:16:01.037Z,68.21
2023-12-11T11:17:06.391Z,67.71
2023-12-11T11:18:14.023Z,67.79
2023-12-11T11:19:19.409Z,68.63
2023-12-11T11:20:25.851Z,68.37
2023-12-11T11:21:32.480Z,68.64
2023-12-11T11:22:41.048Z,68.56
2023-12-11T11:23:48.622Z,69.05
2023-12-11T11:24:54.390Z,69.12
2023-12-11T11:26:02.132Z,68.69
2023-12-11T11:27:07.866Z,69.32
2023-12-11T11:28:43.904Z,71.00
2023-12-11T11:29:49.986Z,69.34
2023-12-11T11:30:56.727Z,69.79
2023-12-11T11:32:04.250Z,69.55
2023-12-11T11:33:11.829Z,70.14
2023-12-11T11:34:17.775Z,69.60
2023-12-11T11:36:03.769Z,71.59
2023-12-11T11:37:09.142Z,70.02
2023-12-11T11:38:14.534Z,70.20
2023-12-11T11:39:21.177Z,70.02
2023-12-11T11:40:37.238Z,70.81
2023-12-11T11:41:44.236Z,70.09
2023-12-11T11:42:49.572Z,70.27
2023-12-11T11:44:08.776Z,71.21
2023-12-11T11:45:14.318Z,70.02
2023-12-11T11:46:21.538Z,70.43
2023-12-11T11:47:29.519Z,70.62
2023-12-11T11:48:49.153Z,71.21
2023-12-11T11:49:55.968Z,70.92
2023-12-11T11:51:03.104Z,70.74
2023-12-11T11:52:09.985Z,71.13
2023-12-11T11:53:21.370Z,71.20
2023-12-11T11:54:27.919Z,70.94
2023-12-11T11:55:35.171Z,71.03
2023-12-11T11:56:49.541Z,71.86
2023-12-11T11:57:56.749Z,71.47
2023-12-11T11:59:18.364Z,71.90
2023-12-11T12:00:27.419Z,71.01
2023-12-11T12:01:32.756Z,71.09
2023-12-11T12:02:41.153Z,71.48
2023-12-11T12:03:47.041Z,71.60
2023-12-11T12:04:53.996Z,71.55
2023-12-11T12:05:59.451Z,71.32
2023-12-11T12:07:07.163Z,71.09
2023-12-11T12:08:12.580Z,70.92
2023-12-11T12:09:21.145Z,71.45
2023-12-11T12:10:27.849Z,70.89
2023-12-11T12:11:38.570Z,71.10
2023-12-11T12:12:45.194Z,70.95
2023-12-11T12:13:50.491Z,71.39
2023-12-11T12:15:07.028Z,71.85
2023-12-11T12:16:13.424Z,70.89
2023-12-11T12:17:20.157Z,71.11
2023-12-11T12:18:27.251Z,71.31
2023-12-11T12:19:37.501Z,72.04
2023-12-11T12:20:42.965Z,71.87
2023-12-11T12:21:55.030Z,72.92
2023-12-11T12:23:01.419Z,72.28
2023-12-11T12:24:08.968Z,72.33
2023-12-11T12:25:18.899Z,73.20
2023-12-11T12:26:25.743Z,72.98
2023-12-11T12:27:31.577Z,72.98
2023-12-11T12:28:38.387Z,72.68
2023-12-11T12:29:45.181Z,72.49
2023-12-11T12:30:51.929Z,72.38
2023-12-11T12:31:57.345Z,72.98
2023-12-11T12:33:04.584Z,72.84
2023-12-11T12:34:11.930Z,72.57
2023-12-11T12:35:17.624Z,72.73
2023-12-11T12:36:24.291Z,72.15
2023-12-11T12:37:30.516Z,72.44
2023-12-11T12:38:37.473Z,72.36
2023-12-11T12:39:43.061Z,72.16
2023-12-11T12:40:49.847Z,72.11
2023-12-11T12:41:55.660Z,72.11
2023-12-11T12:43:02.424Z,71.88
2023-12-11T12:44:07.899Z,72.15
2023-12-11T12:45:23.186Z,72.11
2023-12-11T12:46:42.177Z,73.18
2023-12-11T12:47:52.147Z,72.65
2023-12-11T12:48:57.532Z,72.79
2023-12-11T12:50:09.342Z,72.55
2023-12-11T12:51:14.927Z,72.88
2023-12-11T12:52:28.438Z,72.44
2023-12-11T12:53:33.896Z,72.25
2023-12-11T12:54:53.539Z,72.11
2023-12-11T12:55:58.902Z,72.54
2023-12-11T12:57:05.599Z,72.10
2023-12-11T12:58:12.070Z,72.21
2023-12-11T12:59:22.606Z,72.60
2023-12-11T13:00:29.705Z,72.25
2023-12-11T13:01:41.057Z,72.49
2023-12-11T13:03:04.527Z,73.65
2023-12-11T13:04:13.168Z,72.35
2023-12-11T13:05:21.977Z,73.14
2023-12-11T13:06:30.409Z,73.03
2023-12-11T13:07:37.276Z,72.69
2023-12-11T13:08:49.262Z,73.52
2023-12-11T13:09:59.295Z,73.61
2023-12-11T13:11:09.682Z,73.16
2023-12-11T13:12:17.676Z,73.92
2023-12-11T13:13:25.350Z,73.86
2023-12-11T13:14:31.961Z,73.60
2023-12-11T13:15:39.825Z,73.37
2023-12-11T13:16:48.757Z,74.06
2023-12-11T13:17:58.217Z,74.52
2023-12-11T13:19:05.259Z,73.79
2023-12-11T13:20:13.288Z,74.22
2023-12-11T13:21:21.315Z,74.25
2023-12-11T13:22:28.939Z,74.40
2023-12-11T13:23:34.954Z,74.79
2023-12-11T13:24:42.240Z,74.23
2023-12-11T13:25:48.141Z,74.55
2023-12-11T13:26:55.228Z,74.53
2023-12-11T13:28:03.253Z,75.17
2023-12-11T13:29:10.136Z,74.99
2023-12-11T13:30:18.249Z,75.10
2023-12-11T13:31:25.600Z,75.40
2023-12-11T13:32:31.792Z,75.00
2023-12-11T13:33:38.623Z,75.29
2023-12-11T13:34:44.908Z,75.26
2023-12-11T13:35:52.865Z,75.22
2023-12-11T13:37:00.468Z,76.40
2023-12-11T13:38:07.886Z,75.59
2023-12-11T13:39:14.430Z,76.03
2023-12-11T13:40:21.288Z,75.95
2023-12-11T13:41:27.111Z,76.21
2023-12-11T13:42:34.466Z,75.95
2023-12-11T13:43:39.878Z,75.98
2023-12-11T13:44:47.183Z,76.63
2023-12-11T13:45:52.977Z,76.95
2023-12-11T13:47:00.266Z,76.41
2023-12-11T13:48:32.367Z,78.34
2023-12-11T13:49:40.905Z,77.20
2023-12-11T13:50:46.396Z,76.68
2023-12-11T13:51:53.305Z,76.93
2023-12-11T13:53:01.065Z,77.48
2023-12-11T13:54:08.007Z,77.39
2023-12-11T13:55:13.590Z,77.13
2023-12-11T13:56:21.115Z,76.89
2023-12-11T13:57:26.629Z,77.39
2023-12-11T13:58:34.885Z,77.18
2023-12-11T13:59:40.428Z,77.49
2023-12-11T14:00:47.737Z,77.16
2023-12-11T14:01:56.431Z,76.84
2023-12-11T14:03:04.883Z,76.72
2023-12-11T14:04:14.612Z,76.83
2023-12-11T14:05:22.266Z,76.81
2023-12-11T14:06:27.915Z,76.94
2023-12-11T14:07:35.086Z,76.79
2023-12-11T14:08:42.842Z,76.98
2023-12-11T14:09:50.473Z,76.69
2023-12-11T14:10:56.646Z,76.51
2023-12-11T14:12:03.940Z,76.63
2023-12-11T14:13:15.082Z,76.42
2023-12-11T14:14:21.911Z,76.47
2023-12-11T14:15:28.005Z,76.39
2023-12-11T14:16:35.229Z,76.46
2023-12-11T14:17:41.272Z,76.29
2023-12-11T14:18:48.881Z,76.45
2023-12-11T14:19:54.906Z,76.26
2023-12-11T14:21:02.881Z,76.83
2023-12-11T14:22:08.834Z,76.43
2023-12-11T14:23:16.391Z,76.70
2023-12-11T14:24:24.184Z,76.13
2023-12-11T14:25:31.651Z,76.18
2023-12-11T14:26:47.195Z,76.34
2023-12-11T14:27:57.699Z,76.36